Terminal Aerodrome Forecast
Issued by NWS

Home | Current Version | Previous Version | Text Only | Print | Product List | Glossary On
Versions: 1 2 3 4 5 6 7 8 9 10 11 12 13 14 15
000
FTUS45 KTFX 211100
TAFCTB
TAF
KCTB 211120Z 2112/2212 25006KT P6SM BKN250
     FM211500 VRB06KT P6SM BKN250
     FM211800 16010KT P6SM BKN150
     FM220100 15007KT P6SM BKN100
     FM220700 VRB05KT P6SM SCT100 BKN250=

USA.gov is the U.S. government's official web portal to all federal, state and local government web resources and services.